createdAt,value
2023-01-11T00:00:55.877Z,12.82
2023-01-11T00:10:59.303Z,8.45
2023-01-11T00:21:02.525Z,9.10
2023-01-11T00:31:06.117Z,16.80
2023-01-11T00:41:09.411Z,12.07
2023-01-11T00:51:12.716Z,12.43
2023-01-11T01:01:14.699Z,11.05
2023-01-11T01:11:18.512Z,10.70
2023-01-11T01:21:20.485Z,17.23
2023-01-11T01:31:23.769Z,18.65
2023-01-11T01:41:25.728Z,15.45
2023-01-11T01:51:32.741Z,13.55
2023-01-11T02:01:34.935Z,16.17
2023-01-11T02:11:39.012Z,13.18
2023-01-11T02:22:06.646Z,14.38
2023-01-11T02:32:22.243Z,15.02
2023-01-11T02:42:30.715Z,20.60
2023-01-11T02:52:39.450Z,20.95
2023-01-11T03:02:41.389Z,14.63
2023-01-11T03:12:56.513Z,17.58
2023-01-11T03:23:09.901Z,20.60
2023-01-11T03:33:20.411Z,21.67
2023-01-11T03:43:24.182Z,20.65
2023-01-11T03:53:32.677Z,19.83
2023-01-11T04:03:34.619Z,19.38
2023-01-11T04:13:37.888Z,18.05
2023-01-11T04:23:39.883Z,15.05
2023-01-11T04:33:43.202Z,19.92
2023-01-11T04:43:45.112Z,16.63
2023-01-11T04:53:49.142Z,15.75
2023-01-11T05:03:51.344Z,27.98
2023-01-11T05:13:54.681Z,21.48
2023-01-11T05:23:57.830Z,22.33
2023-01-11T05:34:01.225Z,18.60
2023-01-11T05:44:03.590Z,18.05
2023-01-11T05:54:09.356Z,33.05
2023-01-11T06:04:11.435Z,18.35
2023-01-11T06:14:14.899Z,22.10
2023-01-11T06:24:16.954Z,32.88
2023-01-11T06:34:26.398Z,38.50
2023-01-11T06:44:28.332Z,26.85
2023-01-11T06:54:31.721Z,19.83
2023-01-11T07:04:33.841Z,19.92
2023-01-11T07:14:37.137Z,21.67
2023-01-11T07:24:39.130Z,15.43
2023-01-11T07:34:42.545Z,20.15
2023-01-11T07:44:44.476Z,20.10
2023-01-11T07:54:47.806Z,17.92
2023-01-11T08:04:49.743Z,26.13
2023-01-11T08:14:53.094Z,19.17
2023-01-11T08:24:55.083Z,14.63
2023-01-11T08:34:58.376Z,17.48
2023-01-11T08:45:00.287Z,16.17
2023-01-11T08:55:03.878Z,14.57
2023-01-11T09:05:06.698Z,12.25
2023-01-11T09:15:11.362Z,9.68
2023-01-11T09:25:13.859Z,22.73
2023-01-11T09:35:18.125Z,14.55
2023-01-11T09:45:22.846Z,18.52
2023-01-11T09:55:33.389Z,19.02
2023-01-11T10:05:50.230Z,23.73
2023-01-11T10:18:29.966Z,15.02
2023-01-11T10:26:33.788Z,14.95
2023-01-11T10:36:47.252Z,12.88
2023-01-11T10:46:52.824Z,15.02
2023-01-11T10:57:06.741Z,9.18
2023-01-11T11:07:16.687Z,17.30
2023-01-11T11:27:30.122Z,18.45
2023-01-11T11:37:35.473Z,9.98
2023-01-11T11:47:37.791Z,10.82
2023-01-11T11:57:43.318Z,10.25
2023-01-11T12:07:55.297Z,18.23
2023-01-11T12:18:23.266Z,14.07
2023-01-11T12:28:42.331Z,8.60
2023-01-11T12:38:58.219Z,7.03
2023-01-11T12:49:28.327Z,11.90
2023-01-11T12:59:54.093Z,17.67
2023-01-11T13:10:10.118Z,12.85
2023-01-11T13:20:29.893Z,15.85
2023-01-11T13:30:32.634Z,14.73
2023-01-11T13:40:39.890Z,15.27
2023-01-11T13:50:47.535Z,17.05
2023-01-11T14:00:55.317Z,11.30
2023-01-11T14:11:07.301Z,2.97
2023-01-11T14:21:19.099Z,5.85
2023-01-11T14:31:39.994Z,6.03
2023-01-11T14:42:35.739Z,7.20
2023-01-11T14:52:40.587Z,6.88
2023-01-11T15:02:44.430Z,14.52
2023-01-11T15:12:46.525Z,15.18
2023-01-11T15:22:56.830Z,40.38
2023-01-11T15:43:54.070Z,28.90
2023-01-11T15:54:17.933Z,20.60
2023-01-11T16:04:28.420Z,34.13
2023-01-11T16:15:03.350Z,14.90
2023-01-11T16:25:12.413Z,10.90
2023-01-11T16:35:19.780Z,15.15
2023-01-11T16:45:24.924Z,23.00
2023-01-11T16:55:36.260Z,7.53
2023-01-11T17:05:39.603Z,9.57
2023-01-11T17:15:52.211Z,8.35
2023-01-11T17:25:57.523Z,17.20
2023-01-11T17:36:00.311Z,11.43
2023-01-11T17:46:22.322Z,21.80
2023-01-11T17:56:36.414Z,15.02
2023-01-11T18:06:42.269Z,10.50
2023-01-11T18:16:56.682Z,6.95
2023-01-11T18:27:19.331Z,6.53
2023-01-11T18:37:21.663Z,9.35
2023-01-11T18:47:26.117Z,12.18
2023-01-11T18:57:28.163Z,15.50
2023-01-11T19:07:31.518Z,23.20
2023-01-11T19:17:33.536Z,22.35
2023-01-11T19:27:37.673Z,17.15
2023-01-11T19:37:39.615Z,23.00
2023-01-11T19:47:42.961Z,18.23
2023-01-11T19:57:44.963Z,14.25
2023-01-11T20:07:48.313Z,14.88
2023-01-11T20:17:50.286Z,21.63
2023-01-11T20:27:53.610Z,25.70
2023-01-11T20:38:02.427Z,22.13
2023-01-11T20:48:06.659Z,23.13
2023-01-11T20:58:12.414Z,29.15
2023-01-11T21:08:15.910Z,27.98
2023-01-11T21:18:21.909Z,37.05
2023-01-11T21:28:25.256Z,37.25
2023-01-11T21:38:31.605Z,34.30
2023-01-11T21:48:53.272Z,25.63
2023-01-11T21:59:04.091Z,34.75
2023-01-11T22:09:26.075Z,37.33
2023-01-11T22:31:07.494Z,22.92
2023-01-11T22:41:10.405Z,21.45
2023-01-11T22:51:14.958Z,22.52
2023-01-11T23:01:18.836Z,32.13
2023-01-11T23:11:23.797Z,26.38
2023-01-11T23:21:25.817Z,18.13
2023-01-11T23:31:29.200Z,19.90
2023-01-11T23:41:31.178Z,29.23
2023-01-11T23:51:35.663Z,35.00
